Time;durP1;ratioP1;P1;durP2;ratioP2;P2;SDS_P1;SDS_P2;PMS_P1;PMS_P2;Temp;Humidity;BMP_temperature;BMP_pressure;BME280_temperature;BME280_humidity;BME280_pressure;Samples;Min_cycle;Max_cycle;Signal;HPM_P1;HPM_P2
2020/12/13 00:02:13;;;;;;;15.30;7.67;;;21.40;46.10;;;;;;1487265;95;21215;-33
2020/12/13 00:04:41;;;;;;;15.00;7.65;;;21.40;46.10;;;;;;1489155;94;21187;-33
2020/12/13 00:07:09;;;;;;;15.10;7.30;;;21.40;46.10;;;;;;1468973;94;21203;-32
2020/12/13 00:09:37;;;;;;;11.55;7.12;;;21.40;46.10;;;;;;1488519;94;21252;-33
2020/12/13 00:12:06;;;;;;;12.20;6.45;;;21.40;46.10;;;;;;1470214;95;21282;-33
2020/12/13 00:14:35;;;;;;;13.38;7.22;;;21.40;46.20;;;;;;1486447;95;21204;-33
2020/12/13 00:17:03;;;;;;;14.10;6.90;;;21.40;46.20;;;;;;1487557;94;21172;-32
2020/12/13 00:19:31;;;;;;;12.23;7.25;;;21.40;46.30;;;;;;1456482;95;21301;-33
2020/12/13 00:21:59;;;;;;;11.90;6.95;;;21.30;46.20;;;;;;1487625;94;21255;-35
2020/12/13 00:24:27;;;;;;;14.38;7.00;;;21.30;46.20;;;;;;1471622;95;21752;-33
2020/12/13 00:26:54;;;;;;;15.23;7.25;;;21.30;46.80;;;;;;1471495;95;21223;-34
2020/12/13 00:29:22;;;;;;;13.80;7.05;;;21.30;46.20;;;;;;1485523;95;21207;-32
2020/12/13 00:31:51;;;;;;;16.55;7.28;;;21.30;46.30;;;;;;1483533;94;21334;-33
2020/12/13 00:34:19;;;;;;;14.63;7.37;;;21.30;46.70;;;;;;1488875;94;21227;-35
2020/12/13 00:36:51;;;;;;;14.03;7.15;;;21.30;46.30;;;;;;1470474;95;21283;-33
2020/12/13 00:39:19;;;;;;;12.65;6.72;;;21.30;46.30;;;;;;1466306;95;21245;-32
2020/12/13 00:41:52;;;;;;;13.40;7.47;;;21.30;46.30;;;;;;1482286;94;21342;-33
2020/12/13 00:44:20;;;;;;;15.88;6.30;;;21.30;46.30;;;;;;1471591;95;21608;-35
2020/12/13 00:46:49;;;;;;;13.68;6.33;;;21.30;46.20;;;;;;1465850;95;21283;-32
2020/12/13 00:49:17;;;;;;;13.08;7.28;;;21.30;46.20;;;;;;1481252;95;21374;-35
2020/12/13 00:51:49;;;;;;;11.45;6.45;;;21.30;46.20;;;;;;1450116;95;21216;-32
2020/12/13 00:54:13;;;;;;;14.18;6.67;;;21.30;46.30;;;;;;1482233;95;21259;-34
2020/12/13 00:56:45;;;;;;;10.93;6.40;;;21.30;46.20;;;;;;1480609;95;21303;-33
2020/12/13 00:59:13;;;;;;;11.50;6.15;;;21.20;46.20;;;;;;1483929;94;21192;-33
2020/12/13 01:01:42;;;;;;;13.43;6.97;;;21.20;46.20;;;;;;1481591;95;21900;-34
2020/12/13 01:04:09;;;;;;;11.33;6.60;;;21.20;46.20;;;;;;1464962;95;21251;-33
2020/12/13 01:06:37;;;;;;;9.95;6.53;;;21.20;46.20;;;;;;1481493;95;21358;-33
2020/12/13 01:09:06;;;;;;;11.55;6.30;;;21.20;46.70;;;;;;1481744;95;21360;-33
2020/12/13 01:11:34;;;;;;;11.97;6.78;;;21.20;46.20;;;;;;1482488;95;21704;-32
2020/12/13 01:14:03;;;;;;;12.47;6.70;;;21.20;46.20;;;;;;1483075;95;21211;-33
2020/12/13 01:16:32;;;;;;;10.38;6.47;;;21.20;46.20;;;;;;1482153;95;21240;-31
2020/12/13 01:19:00;;;;;;;10.68;5.92;;;21.20;46.20;;;;;;1446772;95;22749;-34
2020/12/13 01:21:29;;;;;;;10.58;6.75;;;21.20;46.10;;;;;;1485487;95;21282;-33
2020/12/13 01:23:58;;;;;;;8.98;5.83;;;21.20;46.20;;;;;;1465552;95;21199;-33
2020/12/13 01:26:27;;;;;;;9.48;5.60;;;21.20;46.10;;;;;;1481410;95;21303;-32
2020/12/13 01:28:55;;;;;;;10.88;6.20;;;21.20;46.20;;;;;;1482249;95;21341;-31
2020/12/13 01:31:24;;;;;;;11.20;6.33;;;21.20;46.10;;;;;;1482478;95;21357;-32
2020/12/13 01:33:53;;;;;;;9.73;6.10;;;21.20;46.10;;;;;;1476544;95;21672;-33
2020/12/13 01:36:23;;;;;;;11.43;6.17;;;21.20;46.10;;;;;;1482174;93;21259;-34
2020/12/13 01:38:52;;;;;;;10.90;6.17;;;21.20;46.10;;;;;;1448148;95;21324;-35
2020/12/13 01:41:21;;;;;;;10.65;5.95;;;21.10;46.10;;;;;;1482361;95;21312;-32
2020/12/13 01:43:57;;;;;;;13.30;6.67;;;21.10;46.20;;;;;;1465714;95;21851;-32
2020/12/13 01:46:24;;;;;;;;;;;21.10;46.10;;;;;;1484247;95;21211;-32
2020/12/13 01:48:59;;;;;;;9.88;6.25;;;21.10;46.20;;;;;;1482732;93;20266;-32
2020/12/13 01:54:11;;;;;;;12.18;5.60;;;21.10;46.20;;;;;;1488011;94;67307;-33
2020/12/13 01:56:40;;;;;;;11.40;6.03;;;21.10;46.30;;;;;;1503353;93;21229;-32
2020/12/13 01:59:12;;;;;;;12.15;6.20;;;21.10;46.20;;;;;;1486498;94;21689;-32
2020/12/13 02:01:42;;;;;;;9.23;5.97;;;21.10;46.20;;;;;;1500356;93;21662;-33
2020/12/13 02:04:12;;;;;;;8.90;5.80;;;21.10;46.20;;;;;;1484258;94;22408;-31
2020/12/13 02:06:42;;;;;;;9.63;5.80;;;21.10;46.30;;;;;;1503241;94;21662;-33
2020/12/13 02:09:10;;;;;;;8.33;5.47;;;21.10;46.30;;;;;;1504347;93;21320;-36
2020/12/13 02:11:38;;;;;;;10.78;5.97;;;21.10;46.20;;;;;;1479856;94;21274;-34
2020/12/13 02:14:05;;;;;;;10.88;5.97;;;21.00;46.20;;;;;;1497139;93;21435;-34
2020/12/13 02:16:33;;;;;;;9.53;5.20;;;21.10;46.30;;;;;;1510271;93;21223;-34
2020/12/13 02:19:01;;;;;;;11.08;6.28;;;21.10;46.20;;;;;;1509088;92;21229;-34
2020/12/13 02:21:29;;;;;;;10.82;5.12;;;21.00;46.20;;;;;;1505648;93;21244;-34
2020/12/13 02:23:56;;;;;;;10.55;5.97;;;21.10;46.30;;;;;;1488852;94;21313;-35
2020/12/13 02:26:24;;;;;;;9.13;5.65;;;21.00;46.20;;;;;;1502186;94;21310;-33
2020/12/13 02:28:52;;;;;;;11.73;5.45;;;21.00;46.20;;;;;;1485341;95;21684;-34
2020/12/13 02:31:19;;;;;;;10.60;6.03;;;21.10;46.30;;;;;;1484840;94;21403;-31
2020/12/13 02:33:47;;;;;;;8.88;5.33;;;21.00;46.30;;;;;;1496324;93;21490;-33
2020/12/13 02:36:15;;;;;;;11.28;5.72;;;21.00;46.20;;;;;;1476406;94;22267;-31
2020/12/13 02:38:42;;;;;;;10.95;5.35;;;21.00;46.20;;;;;;1489185;94;21257;-32
2020/12/13 02:41:12;;;;;;;7.33;5.45;;;21.00;46.30;;;;;;1498053;93;21406;-32
2020/12/13 02:43:39;;;;;;;9.05;5.45;;;21.00;46.20;;;;;;1491266;94;21756;-33
2020/12/13 02:46:07;;;;;;;9.20;5.37;;;21.10;46.30;;;;;;1499319;94;21187;-35
2020/12/13 02:48:35;;;;;;;10.45;5.37;;;21.00;46.30;;;;;;1491416;94;21222;-34
2020/12/13 02:51:02;;;;;;;10.48;5.75;;;21.00;46.30;;;;;;1495887;94;21579;-32
2020/12/13 02:53:30;;;;;;;7.92;4.85;;;21.10;46.30;;;;;;1495836;94;21374;-31
2020/12/13 02:55:58;;;;;;;7.03;4.65;;;21.10;46.30;;;;;;1496094;94;21203;-30
2020/12/13 02:58:26;;;;;;;9.93;5.35;;;21.10;46.30;;;;;;1493223;94;21274;-33
2020/12/13 03:00:56;;;;;;;8.13;4.83;;;21.10;46.20;;;;;;1495919;94;21212;-31
2020/12/13 03:03:25;;;;;;;9.38;5.22;;;21.10;46.20;;;;;;1493528;94;21316;-33
2020/12/13 03:05:53;;;;;;;7.53;5.03;;;21.10;46.20;;;;;;1493601;93;21336;-31
2020/12/13 03:08:20;;;;;;;8.85;5.58;;;21.10;46.10;;;;;;1496023;93;21346;-33
2020/12/13 03:10:48;;;;;;;7.65;5.15;;;21.10;46.10;;;;;;1495251;92;21210;-31
2020/12/13 03:13:16;;;;;;;9.68;5.65;;;21.20;46.10;;;;;;1495742;94;21250;-32
2020/12/13 03:15:43;;;;;;;7.50;4.70;;;21.20;46.10;;;;;;1491592;94;21592;-32
2020/12/13 03:18:11;;;;;;;9.48;4.97;;;21.20;46.00;;;;;;1473563;94;21305;-33
2020/12/13 03:20:38;;;;;;;10.10;5.25;;;21.20;46.00;;;;;;1493544;94;21224;-34
2020/12/13 03:23:06;;;;;;;6.85;4.62;;;21.20;46.00;;;;;;1476532;94;21247;-34
2020/12/13 03:25:34;;;;;;;6.55;4.70;;;21.20;46.00;;;;;;1491721;94;21368;-34
2020/12/13 03:28:01;;;;;;;8.28;5.05;;;21.20;46.00;;;;;;1478689;94;21282;-33
2020/12/13 03:30:29;;;;;;;9.03;4.78;;;21.20;46.00;;;;;;1495886;94;21199;-34
2020/12/13 03:32:57;;;;;;;7.50;4.78;;;21.20;45.90;;;;;;1497078;93;21706;-36
2020/12/13 03:35:24;;;;;;;9.85;4.95;;;21.20;46.50;;;;;;1492799;94;21246;-34
2020/12/13 03:37:52;;;;;;;6.42;4.85;;;21.20;45.90;;;;;;1493220;94;21296;-33
2020/12/13 03:40:20;;;;;;;7.87;4.83;;;21.20;45.90;;;;;;1491357;94;21222;-34
2020/12/13 03:42:47;;;;;;;8.55;4.90;;;21.20;45.80;;;;;;1497501;94;21322;-34
2020/12/13 03:45:16;;;;;;;8.18;4.87;;;21.20;45.90;;;;;;1498160;94;21415;-34
2020/12/13 03:47:44;;;;;;;5.80;4.25;;;21.20;45.80;;;;;;1474154;94;21260;-34
2020/12/13 03:50:11;;;;;;;6.92;4.17;;;21.20;45.80;;;;;;1476805;94;21207;-36
2020/12/13 03:52:39;;;;;;;6.25;4.42;;;21.30;45.80;;;;;;1495341;94;21701;-35
2020/12/13 03:55:06;;;;;;;9.50;4.78;;;21.30;45.80;;;;;;1473181;94;21198;-35
2020/12/13 03:57:34;;;;;;;8.55;5.08;;;21.30;45.80;;;;;;1502744;94;21401;-31
2020/12/13 04:00:03;;;;;;;7.72;4.30;;;21.30;45.80;;;;;;1496953;94;21958;-31
2020/12/13 04:02:31;;;;;;;7.70;4.75;;;21.30;45.80;;;;;;1483137;94;21741;-33
2020/12/13 04:04:58;;;;;;;6.17;4.55;;;21.30;45.70;;;;;;1499513;93;21372;-30
2020/12/13 04:07:26;;;;;;;5.97;4.08;;;21.30;45.70;;;;;;1498024;94;21278;-32
2020/12/13 04:09:54;;;;;;;7.47;4.55;;;21.30;45.70;;;;;;1502588;94;21674;-32
2020/12/13 04:12:21;;;;;;;7.00;4.10;;;21.30;45.70;;;;;;1494810;94;21289;-32
2020/12/13 04:14:49;;;;;;;6.45;4.00;;;21.30;45.80;;;;;;1467358;94;21352;-33
2020/12/13 04:17:16;;;;;;;5.58;4.03;;;21.30;45.70;;;;;;1493476;94;21294;-33
2020/12/13 04:19:44;;;;;;;6.70;4.78;;;21.30;45.70;;;;;;1495952;94;21196;-31
2020/12/13 04:22:12;;;;;;;7.67;4.50;;;21.30;45.60;;;;;;1494967;94;21729;-33
2020/12/13 04:24:39;;;;;;;5.97;4.42;;;21.30;45.70;;;;;;1496746;94;21247;-31
2020/12/13 04:27:07;;;;;;;6.75;4.42;;;21.30;45.70;;;;;;1475369;94;21310;-31
2020/12/13 04:29:35;;;;;;;5.75;4.25;;;21.30;45.70;;;;;;1489893;94;21750;-31
2020/12/13 04:32:02;;;;;;;6.58;4.40;;;21.30;45.70;;;;;;1492237;93;21270;-32
2020/12/13 04:34:30;;;;;;;6.15;4.05;;;21.30;45.70;;;;;;1480467;94;21194;-32
2020/12/13 04:37:00;;;;;;;5.97;4.30;;;21.40;45.70;;;;;;1501744;93;21315;-31
2020/12/13 04:39:27;;;;;;;4.78;4.00;;;21.30;45.70;;;;;;1503031;93;21723;-33
2020/12/13 04:41:55;;;;;;;6.12;4.40;;;21.30;45.60;;;;;;1486105;94;21294;-30
2020/12/13 04:44:24;;;;;;;6.15;4.12;;;21.40;45.70;;;;;;1504217;93;21340;-31
2020/12/13 04:46:54;;;;;;;6.67;4.20;;;21.40;45.70;;;;;;1489784;93;21210;-32
2020/12/13 04:49:23;;;;;;;6.37;4.30;;;21.40;45.60;;;;;;1496111;93;21257;-30
2020/12/13 04:51:52;;;;;;;5.20;3.80;;;21.40;45.70;;;;;;1503019;93;21363;-32
2020/12/13 04:54:22;;;;;;;5.35;3.83;;;21.40;45.60;;;;;;1492407;93;21655;-33
2020/12/13 04:56:53;;;;;;;6.83;4.55;;;21.40;45.60;;;;;;1504719;93;21261;-34
2020/12/13 04:59:21;;;;;;;7.25;4.33;;;21.40;45.60;;;;;;1503180;93;21292;-34
2020/12/13 05:01:49;;;;;;;7.20;4.58;;;21.40;45.60;;;;;;1472913;94;21338;-33
2020/12/13 05:04:17;;;;;;;4.70;3.60;;;21.40;45.60;;;;;;1507554;93;21214;-34
2020/12/13 05:06:45;;;;;;;5.53;4.40;;;21.40;45.70;;;;;;1481750;93;21297;-34
2020/12/13 05:09:15;;;;;;;7.47;3.95;;;21.40;45.60;;;;;;1482759;93;21255;-33
2020/12/13 05:11:44;;;;;;;5.50;3.90;;;21.40;45.60;;;;;;1493864;93;21226;-34
2020/12/13 05:14:13;;;;;;;6.47;4.40;;;21.40;45.50;;;;;;1505556;93;21305;-34
2020/12/13 05:16:40;;;;;;;5.90;3.90;;;21.40;45.50;;;;;;1512963;92;21270;-33
2020/12/13 05:19:09;;;;;;;6.22;3.83;;;21.40;45.50;;;;;;1495624;93;21226;-36
2020/12/13 05:21:38;;;;;;;5.30;4.00;;;21.40;45.50;;;;;;1471808;93;21246;-30
2020/12/13 05:24:07;;;;;;;5.90;4.30;;;21.40;45.60;;;;;;1504088;94;21294;-32
2020/12/13 05:26:35;;;;;;;6.83;3.45;;;21.40;45.50;;;;;;1486257;93;21205;-32
2020/12/13 05:29:05;;;;;;;5.33;3.87;;;21.40;45.50;;;;;;1484419;93;21632;-33
2020/12/13 05:31:34;;;;;;;5.10;3.52;;;21.40;45.50;;;;;;1496989;93;21230;-31
2020/12/13 05:36:36;;;;;;;5.22;3.90;;;21.40;45.50;;;;;;1501751;93;21234;-35
2020/12/13 05:39:04;;;;;;;7.97;4.47;;;21.40;45.50;;;;;;1500741;93;21242;-33
2020/12/13 05:41:36;;;;;;;6.10;3.90;;;21.40;45.50;;;;;;1470315;93;21206;-33
2020/12/13 05:47:20;;;;;;;7.05;4.33;;;21.40;45.50;;;;;;1508843;92;67826;-32
2020/12/13 05:52:19;;;;;;;6.55;4.10;;;21.40;45.50;;;;;;1505914;93;21315;-32
2020/12/13 05:54:47;;;;;;;5.62;4.20;;;21.40;45.50;;;;;;1511601;93;21190;-30
2020/12/13 05:57:17;;;;;;;6.75;4.15;;;21.40;45.50;;;;;;1503867;93;21347;-32
2020/12/13 05:59:44;;;;;;;6.25;3.87;;;21.40;45.50;;;;;;1490506;93;21647;-33
2020/12/13 06:02:12;;;;;;;5.03;3.98;;;21.40;45.40;;;;;;1505582;93;21194;-33
2020/12/13 06:04:45;;;;;;;7.05;3.62;;;21.40;45.40;;;;;;1498553;93;21218;-33
2020/12/13 06:07:13;;;;;;;5.05;3.92;;;21.40;46.00;;;;;;1503803;93;21167;-34
2020/12/13 06:09:44;;;;;;;6.05;4.28;;;21.40;46.00;;;;;;1502436;93;21229;-32
2020/12/13 06:12:14;;;;;;;4.70;3.77;;;21.40;45.40;;;;;;1505392;93;21269;-32
2020/12/13 06:14:43;;;;;;;5.12;4.12;;;21.40;45.40;;;;;;1492349;94;21214;-32
2020/12/13 06:17:10;;;;;;;5.35;3.90;;;21.40;45.40;;;;;;1504569;93;21246;-31
2020/12/13 06:19:39;;;;;;;5.20;3.98;;;21.40;45.40;;;;;;1496646;93;21369;-32
2020/12/13 06:22:08;;;;;;;4.72;3.65;;;21.40;45.40;;;;;;1505099;93;21800;-36
2020/12/13 06:24:35;;;;;;;5.53;4.00;;;21.40;45.40;;;;;;1514990;93;21198;-32
2020/12/13 06:27:03;;;;;;;5.47;3.87;;;21.40;45.40;;;;;;1508321;93;21244;-32
2020/12/13 06:29:31;;;;;;;5.00;3.70;;;21.40;45.40;;;;;;1506828;93;21333;-32
2020/12/13 06:32:00;;;;;;;5.33;3.87;;;21.40;45.40;;;;;;1507594;93;21251;-31
2020/12/13 06:34:30;;;;;;;4.97;3.65;;;21.40;45.40;;;;;;1505527;93;21234;-32
2020/12/13 06:36:58;;;;;;;5.17;3.62;;;21.40;45.40;;;;;;1504105;94;21234;-33
2020/12/13 06:39:26;;;;;;;4.97;3.90;;;21.40;45.40;;;;;;1506539;93;21764;-31
2020/12/13 06:41:54;;;;;;;5.90;3.87;;;21.40;45.40;;;;;;1509205;93;21660;-32
2020/12/13 06:44:23;;;;;;;4.70;3.72;;;21.40;45.30;;;;;;1509307;93;21258;-32
2020/12/13 06:46:50;;;;;;;3.98;3.27;;;21.40;45.30;;;;;;1500867;94;21712;-32
2020/12/13 06:49:19;;;;;;;4.33;3.30;;;21.40;45.30;;;;;;1506261;93;21258;-31
2020/12/13 06:51:48;;;;;;;4.62;3.80;;;21.40;45.40;;;;;;1512997;93;21312;-32
2020/12/13 06:54:18;;;;;;;5.62;3.22;;;21.40;45.30;;;;;;1516945;93;21883;-33
2020/12/13 06:56:49;;;;;;;5.00;3.47;;;21.40;45.30;;;;;;1508758;94;21540;-32
2020/12/13 06:59:21;;;;;;;4.50;3.72;;;21.40;45.30;;;;;;1492288;93;21740;-32
2020/12/13 07:01:49;;;;;;;5.25;3.72;;;21.40;45.30;;;;;;1516921;93;21239;-31
2020/12/13 07:04:31;;;;;;;4.33;3.77;;;21.40;45.30;;;;;;1506827;93;21736;-33
2020/12/13 07:07:01;;;;;;;4.70;3.30;;;21.40;45.30;;;;;;1503391;93;21246;-32
2020/12/13 07:09:30;;;;;;;5.85;3.80;;;21.40;45.30;;;;;;1505412;93;21284;-32
2020/12/13 07:11:59;;;;;;;5.53;3.85;;;21.40;45.30;;;;;;1488157;95;21196;-31
2020/12/13 07:14:29;;;;;;;4.37;3.30;;;21.40;45.30;;;;;;1503355;93;21166;-33
2020/12/13 07:17:03;;;;;;;4.53;3.20;;;21.40;45.30;;;;;;1505928;93;21240;-32
2020/12/13 07:19:32;;;;;;;6.08;3.62;;;21.40;45.30;;;;;;1507972;93;21239;-32
2020/12/13 07:22:09;;;;;;;5.08;3.75;;;21.40;45.30;;;;;;1504145;93;21206;-32
2020/12/13 07:24:37;;;;;;;6.00;3.92;;;21.40;45.30;;;;;;1508637;93;21326;-33
2020/12/13 07:27:06;;;;;;;6.72;4.15;;;21.40;45.30;;;;;;1480496;93;21270;-33
2020/12/13 07:29:34;;;;;;;4.33;3.35;;;21.40;45.30;;;;;;1510015;93;21296;-34
2020/12/13 07:32:03;;;;;;;4.05;3.00;;;21.40;45.30;;;;;;1490441;93;21617;-34
2020/12/13 07:34:32;;;;;;;4.25;3.33;;;21.40;45.30;;;;;;1500499;93;21227;-34
2020/12/13 07:37:00;;;;;;;5.15;3.27;;;21.40;45.30;;;;;;1495552;94;22437;-32
2020/12/13 07:39:33;;;;;;;4.05;3.33;;;21.40;45.20;;;;;;1497678;93;21234;-32
2020/12/13 07:41:58;;;;;;;5.45;3.65;;;21.40;45.30;;;;;;1494202;93;21196;-31
2020/12/13 07:44:26;;;;;;;4.37;3.67;;;21.40;45.20;;;;;;1492930;94;21215;-32
2020/12/13 07:46:54;;;;;;;5.12;3.40;;;21.40;45.20;;;;;;1474918;94;21309;-30
2020/12/13 07:49:22;;;;;;;5.00;3.75;;;21.40;45.20;;;;;;1489075;94;21242;-33
2020/12/13 07:51:52;;;;;;;4.35;3.55;;;21.40;45.80;;;;;;1500259;94;21329;-34
2020/12/13 07:54:28;;;;;;;4.58;3.47;;;21.40;45.20;;;;;;1494324;93;21733;-32
2020/12/13 07:56:58;;;;;;;5.20;3.15;;;21.40;45.20;;;;;;1494336;93;21310;-33
2020/12/13 07:59:28;;;;;;;3.90;3.40;;;21.40;45.20;;;;;;1462673;94;21368;-34
2020/12/13 08:01:58;;;;;;;4.45;3.00;;;21.40;45.40;;;;;;1494941;94;22473;-34
2020/12/13 08:04:33;;;;;;;4.45;2.90;;;21.40;45.20;;;;;;1493308;93;21784;-32
2020/12/13 08:07:05;;;;;;;4.67;3.58;;;21.40;45.20;;;;;;1491666;94;21239;-33
2020/12/13 08:09:34;;;;;;;4.50;3.50;;;21.50;45.20;;;;;;1497493;94;21192;-32
2020/12/13 08:12:03;;;;;;;3.95;3.12;;;21.50;45.20;;;;;;1477039;94;21287;-32
2020/12/13 08:14:30;;;;;;;4.08;3.27;;;21.50;45.60;;;;;;1487816;93;21694;-33
2020/12/13 08:16:58;;;;;;;5.47;3.70;;;21.50;45.00;;;;;;1493024;93;21508;-36
2020/12/13 08:19:35;;;;;;;4.67;3.22;;;21.60;45.00;;;;;;1466854;94;21717;-34
2020/12/13 08:22:05;;;;;;;4.87;3.33;;;21.60;44.90;;;;;;1493382;94;21199;-33
2020/12/13 08:24:33;;;;;;;4.58;3.27;;;21.60;44.90;;;;;;1497642;94;21196;-34
2020/12/13 08:27:02;;;;;;;4.08;3.50;;;21.60;44.90;;;;;;1464248;94;21212;-32
2020/12/13 08:29:32;;;;;;;5.25;3.22;;;21.70;44.60;;;;;;1498526;93;21183;-33
2020/12/13 08:32:00;;;;;;;4.62;3.17;;;21.70;44.80;;;;;;1495778;93;21252;-34
2020/12/13 08:34:30;;;;;;;5.28;3.52;;;21.70;44.70;;;;;;1497509;93;21842;-32
2020/12/13 08:36:59;;;;;;;3.92;3.30;;;21.70;44.70;;;;;;1503037;94;21297;-34
2020/12/13 08:39:35;;;;;;;4.00;3.00;;;21.70;44.60;;;;;;1474980;94;21265;-33
2020/12/13 08:42:07;;;;;;;3.90;3.27;;;21.80;44.60;;;;;;1504698;93;67655;-32
2020/12/13 08:44:36;;;;;;;4.25;3.17;;;21.80;44.60;;;;;;1478539;94;21408;-33
2020/12/13 08:47:07;;;;;;;5.30;3.35;;;21.80;44.60;;;;;;1493634;94;22341;-33
2020/12/13 08:49:38;;;;;;;3.85;3.20;;;21.80;44.50;;;;;;1485941;94;21291;-32
2020/12/13 08:52:22;;;;;;;3.65;2.95;;;21.80;44.50;;;;;;1470268;95;21264;-34
2020/12/13 08:54:53;;;;;;;6.28;3.25;;;21.80;44.50;;;;;;1497977;93;67781;-32
2020/12/13 08:57:30;;;;;;;7.47;3.22;;;21.90;44.50;;;;;;1501772;93;21221;-33
2020/12/13 09:00:03;;;;;;;6.75;3.50;;;21.90;45.00;;;;;;1514797;93;21294;-33
2020/12/13 09:02:31;;;;;;;5.58;3.42;;;21.90;45.10;;;;;;1506279;93;21639;-31
2020/12/13 09:05:00;;;;;;;5.17;3.60;;;21.90;44.90;;;;;;1505383;93;21229;-34
2020/12/13 09:07:31;;;;;;;5.10;3.25;;;21.90;44.80;;;;;;1503853;93;21277;-31
2020/12/13 09:09:58;;;;;;;12.37;4.85;;;22.00;45.30;;;;;;1503466;93;21231;-35
2020/12/13 09:12:28;;;;;;;7.50;3.40;;;22.00;44.90;;;;;;1474719;93;21224;-35
2020/12/13 09:14:56;;;;;;;3.75;2.87;;;22.10;44.80;;;;;;1504013;93;21214;-31
2020/12/13 09:17:25;;;;;;;5.03;3.25;;;22.10;44.90;;;;;;1486919;93;21276;-32
2020/12/13 09:19:55;;;;;;;4.22;2.98;;;22.20;45.10;;;;;;1484853;93;21642;-32
2020/12/13 09:22:23;;;;;;;3.45;2.98;;;22.20;45.10;;;;;;1504765;93;21189;-33
2020/12/13 09:24:51;;;;;;;3.58;3.10;;;22.20;45.00;;;;;;1504406;93;21150;-33
2020/12/13 09:27:19;;;;;;;4.58;3.10;;;22.20;44.90;;;;;;1505327;93;21325;-34
2020/12/13 09:29:53;;;;;;;4.50;3.02;;;22.30;44.70;;;;;;1504461;93;21190;-33
2020/12/13 09:32:23;;;;;;;4.20;3.20;;;22.20;44.80;;;;;;1505812;93;21191;-32
2020/12/13 09:34:50;;;;;;;3.85;2.92;;;22.30;44.70;;;;;;1503467;93;21234;-36
2020/12/13 09:37:20;;;;;;;4.47;3.00;;;22.30;44.80;;;;;;1498756;93;21764;-33
2020/12/13 09:39:47;;;;;;;4.85;3.02;;;22.30;44.80;;;;;;1488521;93;21297;-34
2020/12/13 09:42:16;;;;;;;3.60;3.10;;;22.30;44.70;;;;;;1504603;93;21217;-35
2020/12/13 09:44:49;;;;;;;3.55;2.87;;;22.30;45.00;;;;;;1503511;93;21170;-35
2020/12/13 09:47:13;;;;;;;4.40;3.20;;;22.40;45.00;;;;;;1504702;93;21276;-33
2020/12/13 09:49:41;;;;;;;3.17;2.80;;;22.40;44.60;;;;;;1505016;93;21771;-33
2020/12/13 09:52:09;;;;;;;4.70;3.00;;;22.40;44.70;;;;;;1469453;94;22416;-35
2020/12/13 09:54:36;;;;;;;5.35;3.20;;;22.40;44.70;;;;;;1505714;93;21572;-34
2020/12/13 09:57:04;;;;;;;3.80;3.37;;;22.40;44.60;;;;;;1487219;94;21206;-35
2020/12/13 09:59:32;;;;;;;4.62;3.00;;;22.40;45.00;;;;;;1488235;93;22529;-34
2020/12/13 10:01:59;;;;;;;4.80;2.92;;;22.50;45.00;;;;;;1505858;93;21255;-33
2020/12/13 10:04:27;;;;;;;4.15;2.92;;;22.50;44.50;;;;;;1489697;93;21674;-35
2020/12/13 10:07:17;;;;;;;6.58;3.35;;;22.50;44.70;;;;;;1508820;93;21198;-34
2020/12/13 10:09:30;;;;;;;5.97;3.12;;;22.50;44.80;;;;;;1504171;93;23004;-34
2020/12/13 10:11:58;;;;;;;7.17;3.58;;;22.50;44.80;;;;;;1508759;93;21269;-36
2020/12/13 10:14:25;;;;;;;4.30;3.17;;;22.50;44.50;;;;;;1507207;93;22046;-34
2020/12/13 10:16:54;;;;;;;7.20;3.50;;;22.50;44.20;;;;;;1491736;93;21215;-34
2020/12/13 10:19:21;;;;;;;12.63;5.67;;;22.40;43.30;;;;;;1498081;93;21311;-34
2020/12/13 10:21:49;;;;;;;25.50;5.37;;;22.20;42.70;;;;;;1488131;93;21290;-34
2020/12/13 10:24:17;;;;;;;12.82;4.78;;;22.00;42.60;;;;;;1485079;93;21318;-32
2020/12/13 10:26:45;;;;;;;9.60;4.90;;;21.90;42.70;;;;;;1505118;93;21669;-35
2020/12/13 10:29:13;;;;;;;11.35;4.90;;;21.80;42.80;;;;;;1497146;93;21202;-33
2020/12/13 10:31:41;;;;;;;13.20;5.33;;;21.70;42.70;;;;;;1504404;93;21229;-34
2020/12/13 10:34:16;;;;;;;13.53;6.05;;;21.60;42.70;;;;;;1506689;93;21230;-34
2020/12/13 10:36:43;;;;;;;10.15;4.70;;;21.50;42.70;;;;;;1503581;93;21814;-33
2020/12/13 10:39:12;;;;;;;11.33;5.33;;;21.50;43.30;;;;;;1509847;93;21907;-34
2020/12/13 10:41:40;;;;;;;14.13;5.80;;;21.40;43.40;;;;;;1505280;93;21221;-34
2020/12/13 10:44:07;;;;;;;12.90;5.50;;;21.50;43.50;;;;;;1501963;93;21741;-33
2020/12/13 10:46:36;;;;;;;10.75;4.70;;;21.70;43.70;;;;;;1503071;93;21313;-34
2020/12/13 10:49:04;;;;;;;12.70;4.80;;;21.80;44.20;;;;;;1503848;92;21320;-33
2020/12/13 10:51:32;;;;;;;8.65;4.92;;;21.90;44.50;;;;;;1505119;93;21665;-33
2020/12/13 10:53:59;;;;;;;9.13;4.62;;;21.90;44.80;;;;;;1503744;93;21260;-33
2020/12/13 10:56:27;;;;;;;8.95;4.40;;;22.00;44.80;;;;;;1471971;93;21194;-33
2020/12/13 10:58:55;;;;;;;11.83;4.65;;;22.10;44.70;;;;;;1504034;93;21306;-33
2020/12/13 11:01:22;;;;;;;8.78;4.20;;;22.10;44.60;;;;;;1488122;93;21361;-34
2020/12/13 11:03:50;;;;;;;9.55;4.62;;;22.10;44.90;;;;;;1487857;94;21178;-34
2020/12/13 11:06:17;;;;;;;8.43;4.28;;;22.20;44.60;;;;;;1507110;93;21234;-34
2020/12/13 11:08:45;;;;;;;7.35;3.65;;;22.20;44.60;;;;;;1492121;94;21298;-36
2020/12/13 11:11:13;;;;;;;10.45;4.22;;;22.20;44.70;;;;;;1501660;93;21976;-34
2020/12/13 11:13:42;;;;;;;6.55;3.55;;;22.20;45.00;;;;;;1503148;93;21215;-34
2020/12/13 11:16:10;;;;;;;7.97;4.28;;;22.30;44.70;;;;;;1473621;94;21239;-34
2020/12/13 11:18:38;;;;;;;7.78;4.33;;;22.30;44.60;;;;;;1506609;93;21330;-34
2020/12/13 11:21:05;;;;;;;5.97;3.75;;;22.30;44.60;;;;;;1488900;93;21301;-34
2020/12/13 11:23:33;;;;;;;9.45;4.50;;;22.30;45.20;;;;;;1488879;93;21199;-35
2020/12/13 11:26:01;;;;;;;10.50;4.37;;;22.30;45.90;;;;;;1505558;93;21277;-33
2020/12/13 11:28:28;;;;;;;12.78;4.72;;;22.30;46.60;;;;;;1468067;94;21147;-34
2020/12/13 11:30:56;;;;;;;11.63;4.80;;;22.30;47.70;;;;;;1501545;93;21378;-33
2020/12/13 11:33:24;;;;;;;11.48;4.95;;;22.30;47.80;;;;;;1506879;93;22381;-33
2020/12/13 11:35:52;;;;;;;8.78;4.47;;;22.40;48.10;;;;;;1504672;93;21246;-35
2020/12/13 11:38:19;;;;;;;9.48;4.65;;;22.40;47.80;;;;;;1496585;93;21788;-33
2020/12/13 11:40:47;;;;;;;8.65;4.60;;;22.40;47.60;;;;;;1488538;94;21313;-33
2020/12/13 11:43:15;;;;;;;11.65;4.58;;;22.50;47.50;;;;;;1509603;93;21258;-33
2020/12/13 11:45:42;;;;;;;7.45;4.03;;;22.50;47.40;;;;;;1483440;94;21224;-34
2020/12/13 11:48:10;;;;;;;9.43;4.30;;;22.50;47.20;;;;;;1485426;93;21222;-34
2020/12/13 11:50:40;;;;;;;8.68;4.35;;;22.50;47.20;;;;;;1502372;93;21262;-33
2020/12/13 11:53:09;;;;;;;11.45;4.15;;;22.50;47.20;;;;;;1503805;93;21816;-35
2020/12/13 11:55:37;;;;;;;10.23;4.80;;;22.60;47.00;;;;;;1494535;93;21194;-33
2020/12/13 11:58:05;;;;;;;7.37;4.30;;;22.60;47.00;;;;;;1506420;93;21553;-33
2020/12/13 12:00:32;;;;;;;8.20;4.20;;;22.60;47.20;;;;;;1475869;93;21389;-33
2020/12/13 12:03:00;;;;;;;10.05;4.30;;;22.60;46.90;;;;;;1490358;93;21854;-34
2020/12/13 12:05:28;;;;;;;6.67;4.03;;;22.60;46.80;;;;;;1496134;93;21237;-34
2020/12/13 12:07:55;;;;;;;7.95;3.98;;;22.60;47.10;;;;;;1486759;93;21429;-33
2020/12/13 12:10:23;;;;;;;9.48;3.85;;;22.60;46.70;;;;;;1501948;93;21618;-33
2020/12/13 12:12:51;;;;;;;7.92;3.90;;;22.60;46.70;;;;;;1506827;93;21373;-34
2020/12/13 12:15:18;;;;;;;7.58;3.87;;;22.60;46.70;;;;;;1507611;93;21334;-32
2020/12/13 12:17:46;;;;;;;11.33;3.50;;;22.60;46.70;;;;;;1506436;93;21234;-33
2020/12/13 12:20:17;;;;;;;5.80;3.65;;;22.60;46.50;;;;;;1488632;94;21190;-33
2020/12/13 12:22:45;;;;;;;7.58;4.15;;;22.70;46.80;;;;;;1491001;94;21740;-34
2020/12/13 12:25:13;;;;;;;6.67;3.50;;;22.70;46.60;;;;;;1507856;93;21881;-31
2020/12/13 12:27:41;;;;;;;9.80;4.67;;;22.70;46.60;;;;;;1489074;94;21231;-35
2020/12/13 12:30:09;;;;;;;12.45;3.62;;;22.70;46.60;;;;;;1506162;93;21234;-35
2020/12/13 12:32:37;;;;;;;7.22;4.12;;;22.70;46.80;;;;;;1507464;93;21231;-35
2020/12/13 12:35:05;;;;;;;7.72;4.15;;;22.70;46.80;;;;;;1472581;93;21210;-34
2020/12/13 12:37:35;;;;;;;9.05;4.22;;;22.70;46.70;;;;;;1499814;93;21871;-35
2020/12/13 12:40:04;;;;;;;6.15;3.87;;;22.70;46.80;;;;;;1475818;94;21274;-33
2020/12/13 12:42:33;;;;;;;11.65;4.20;;;22.70;46.50;;;;;;1493508;94;21224;-34
2020/12/13 12:45:02;;;;;;;8.00;4.12;;;22.60;46.70;;;;;;1492310;93;21234;-32
2020/12/13 12:47:30;;;;;;;10.10;4.00;;;22.50;46.90;;;;;;1482902;94;21760;-33
2020/12/13 12:49:58;;;;;;;9.05;4.05;;;22.50;47.20;;;;;;1493781;94;21689;-33
2020/12/13 12:52:26;;;;;;;8.80;4.67;;;22.40;47.40;;;;;;1490442;94;21452;-33
2020/12/13 12:54:54;;;;;;;9.03;4.47;;;22.40;47.90;;;;;;1462336;94;21219;-34
2020/12/13 12:57:21;;;;;;;8.78;4.83;;;22.40;48.00;;;;;;1490570;94;21730;-33
2020/12/13 13:02:18;;;;;;;12.50;4.33;;;22.30;48.30;;;;;;1498564;94;21246;-33
2020/12/13 13:04:57;;;;;;;12.88;4.35;;;22.30;48.30;;;;;;1494117;94;21261;-33
2020/12/13 13:07:17;;;;;;;6.30;3.90;;;22.30;48.20;;;;;;1472790;94;21223;-31